Time;durP1;ratioP1;P1;durP2;ratioP2;P2;SDS_P1;SDS_P2;PMS_P1;PMS_P2;Temp;Humidity;BMP_temperature;BMP_pressure;BME280_temperature;BME280_humidity;BME280_pressure;Samples;Min_cycle;Max_cycle;Signal;HPM_P1;HPM_P2
2022/01/04 00:00:44;;;;;;;4.07;1.40;;;27.70;62.40;;;;;;4152385;28;20061;-60
2022/01/04 00:02:47;;;;;;;6.82;1.65;;;27.70;61.90;;;;;;4148880;28;21874;-59
2022/01/04 00:04:49;;;;;;;3.95;1.52;;;27.70;60.50;;;;;;4126642;28;20136;-61
2022/01/04 00:06:53;;;;;;;2.95;1.52;;;27.70;59.30;;;;;;4146427;28;20048;-60
2022/01/04 00:09:00;;;;;;;8.68;1.95;;;27.70;58.00;;;;;;4145188;28;20071;-63
2022/01/04 00:13:30;;;;;;;6.03;1.80;;;27.60;56.80;;;;;;4132778;28;20053;-59
2022/01/04 00:15:32;;;;;;;3.13;1.55;;;27.50;56.40;;;;;;4144120;28;20540;-62
2022/01/04 00:17:34;;;;;;;4.87;1.60;;;27.50;55.90;;;;;;4133526;28;22192;-59
2022/01/04 00:19:36;;;;;;;4.28;1.77;;;27.50;55.50;;;;;;4144080;28;20876;-60
2022/01/04 00:21:42;;;;;;;3.53;1.27;;;27.40;54.90;;;;;;4151167;28;20170;-60
2022/01/04 00:23:44;;;;;;;2.75;1.30;;;27.40;54.10;;;;;;4143048;28;20052;-60
2022/01/04 00:25:48;;;;;;;1.98;1.20;;;27.30;53.70;;;;;;4142954;28;20052;-59
2022/01/04 00:27:50;;;;;;;1.95;0.98;;;27.30;53.10;;;;;;4143239;28;20056;-59
2022/01/04 00:29:52;;;;;;;2.08;0.75;;;27.20;52.80;;;;;;4143575;28;20056;-58
2022/01/04 00:31:55;;;;;;;3.17;0.90;;;27.20;53.00;;;;;;4138262;28;20849;-56
2022/01/04 00:33:57;;;;;;;3.47;0.75;;;27.10;52.30;;;;;;4143751;28;20044;-49
2022/01/04 00:35:59;;;;;;;2.90;0.75;;;27.10;52.30;;;;;;4149755;28;20052;-56
2022/01/04 00:38:01;;;;;;;1.13;0.70;;;27.10;51.90;;;;;;4141706;28;20172;-48
2022/01/04 00:40:04;;;;;;;2.08;0.65;;;27.10;51.80;;;;;;4144374;28;20120;-45
2022/01/04 00:42:07;;;;;;;0.40;0.40;;;27.00;51.70;;;;;;4141101;28;20053;-52
2022/01/04 00:44:09;;;;;;;1.07;0.60;;;27.00;51.40;;;;;;4144408;28;20064;-47
2022/01/04 00:46:16;;;;;;;0.63;0.63;;;26.90;51.10;;;;;;4139711;28;20372;-45
2022/01/04 00:50:23;;;;;;;0.50;0.50;;;26.90;51.00;;;;;;4144212;28;20058;-48
2022/01/04 00:52:26;;;;;;;0.73;0.60;;;26.90;50.60;;;;;;4153031;28;21049;-49
2022/01/04 00:54:28;;;;;;;0.47;0.47;;;26.80;50.50;;;;;;4139882;28;20057;-48
2022/01/04 00:56:30;;;;;;;1.55;0.60;;;26.80;50.10;;;;;;4133826;28;20542;-47
2022/01/04 00:58:33;;;;;;;0.50;0.50;;;26.70;50.30;;;;;;4140085;28;20414;-49
2022/01/04 02:15:38;;;;;;;0.98;0.75;;;26.40;49.50;;;;;;4943680;23;2559675;-43
2022/01/04 02:17:40;;;;;;;0.40;0.40;;;26.40;49.60;;;;;;4984186;23;20129;-43
2022/01/04 02:19:42;;;;;;;0.60;0.60;;;26.40;49.40;;;;;;4978877;23;20698;-47
2022/01/04 02:21:44;;;;;;;2.17;0.52;;;26.40;49.40;;;;;;4978649;23;20057;-46
2022/01/04 02:23:46;;;;;;;0.98;0.70;;;26.40;49.40;;;;;;4985912;23;20419;-50
2022/01/04 02:25:49;;;;;;;2.22;0.82;;;26.40;49.30;;;;;;4977287;23;20153;-43
2022/01/04 02:27:51;;;;;;;;;;;26.40;49.30;;;;;;4955953;23;20034;-44
2022/01/04 02:29:53;;;;;;;1.02;0.77;;;26.40;49.50;;;;;;4958044;23;19941;-45
2022/01/04 02:31:56;;;;;;;0.90;0.75;;;26.40;49.20;;;;;;4957663;23;20055;-45
2022/01/04 02:33:58;;;;;;;0.90;0.63;;;26.40;49.40;;;;;;4954436;23;20071;-43
2022/01/04 02:36:00;;;;;;;0.52;0.47;;;26.30;49.50;;;;;;4954965;23;20110;-44
2022/01/04 02:38:03;;;;;;;0.55;0.52;;;26.30;49.40;;;;;;4961924;23;20035;-45
2022/01/04 02:40:06;;;;;;;0.82;0.50;;;26.30;49.70;;;;;;4955587;23;20027;-43
2022/01/04 02:42:08;;;;;;;0.43;0.43;;;26.20;49.80;;;;;;4953332;23;20723;-43
2022/01/04 02:44:11;;;;;;;1.00;0.57;;;26.20;49.80;;;;;;4956468;23;20094;-44
2022/01/04 02:46:13;;;;;;;1.30;0.60;;;26.20;49.80;;;;;;4956441;23;20077;-44
2022/01/04 02:48:15;;;;;;;1.00;0.60;;;26.10;49.70;;;;;;4954674;23;20083;-45
2022/01/04 02:50:18;;;;;;;1.08;0.80;;;26.10;49.90;;;;;;4956757;23;20042;-45
2022/01/04 02:52:20;;;;;;;0.93;0.60;;;26.10;49.90;;;;;;4963202;23;20039;-43
2022/01/04 02:54:22;;;;;;;0.52;0.52;;;26.10;49.80;;;;;;4961679;23;20208;-42
2022/01/04 02:56:24;;;;;;;1.20;0.63;;;26.10;49.90;;;;;;4961938;23;20035;-44
2022/01/04 02:58:26;;;;;;;0.68;0.50;;;26.10;49.90;;;;;;4968938;23;20079;-46
2022/01/04 03:00:29;;;;;;;1.25;0.88;;;26.10;50.00;;;;;;4964425;23;20027;-43
2022/01/04 03:02:31;;;;;;;0.73;0.50;;;26.10;50.10;;;;;;4961424;23;20053;-42
2022/01/04 03:04:33;;;;;;;0.93;0.40;;;26.10;50.00;;;;;;4955419;23;20111;-44
2022/01/04 03:06:37;;;;;;;1.08;0.63;;;26.10;50.00;;;;;;4960582;23;20114;-43
2022/01/04 03:08:39;;;;;;;1.92;0.85;;;26.10;49.90;;;;;;4954065;23;21083;-42
2022/01/04 03:10:41;;;;;;;1.65;0.60;;;26.10;49.70;;;;;;4955269;23;20031;-44
2022/01/04 03:12:44;;;;;;;0.80;0.60;;;26.10;49.70;;;;;;4960776;23;20074;-44
2022/01/04 03:14:46;;;;;;;;;;;26.10;49.70;;;;;;4958459;23;20107;-42
2022/01/04 03:16:48;;;;;;;1.70;0.70;;;26.10;49.60;;;;;;4955372;23;20005;-43
2022/01/04 03:19:03;;;;;;;0.77;0.50;;;26.10;49.40;;;;;;4957365;23;20099;-46
2022/01/04 03:21:05;;;;;;;3.78;0.65;;;26.10;49.60;;;;;;4953715;23;20031;-43
2022/01/04 03:23:10;;;;;;;0.55;0.50;;;26.10;49.50;;;;;;4960529;23;20337;-43
2022/01/04 03:25:12;;;;;;;0.70;0.50;;;26.10;49.50;;;;;;4954891;23;20075;-44
2022/01/04 03:27:15;;;;;;;3.22;1.08;;;26.10;49.50;;;;;;4953872;23;20125;-49
2022/01/04 03:29:17;;;;;;;6.38;0.95;;;26.00;49.40;;;;;;4958523;23;20090;-60
2022/01/04 03:31:20;;;;;;;1.13;0.68;;;26.10;50.00;;;;;;4961655;23;20497;-58
2022/01/04 03:33:22;;;;;;;2.23;0.83;;;26.10;50.40;;;;;;4954309;23;20110;-57
2022/01/04 03:35:24;;;;;;;2.15;0.88;;;26.10;50.60;;;;;;4954032;23;20066;-56
2022/01/04 03:37:26;;;;;;;2.83;0.87;;;26.20;50.90;;;;;;4962117;23;20144;-59
2022/01/04 03:39:29;;;;;;;1.83;0.65;;;26.30;51.20;;;;;;4945013;23;20960;-42
2022/01/04 03:41:33;;;;;;;0.68;0.50;;;26.40;51.40;;;;;;4951662;23;20035;-42
2022/01/04 03:43:39;;;;;;;1.02;0.60;;;26.40;51.60;;;;;;4955926;23;20033;-44
2022/01/04 03:45:41;;;;;;;1.77;0.70;;;26.50;50.90;;;;;;4957983;23;20035;-44
2022/01/04 03:47:44;;;;;;;1.08;0.73;;;26.50;50.50;;;;;;4946158;23;21085;-46
2022/01/04 03:49:46;;;;;;;0.88;0.70;;;26.50;50.00;;;;;;4950636;23;20488;-45
2022/01/04 03:51:49;;;;;;;1.17;0.68;;;26.40;49.80;;;;;;4954566;23;20027;-44
2022/01/04 03:53:52;;;;;;;0.82;0.50;;;26.40;49.50;;;;;;4958182;23;20185;-46
2022/01/04 03:55:54;;;;;;;1.00;0.73;;;26.40;49.40;;;;;;4951342;23;20624;-47
2022/01/04 03:57:56;;;;;;;1.48;0.73;;;26.30;49.40;;;;;;4951411;23;20266;-50
2022/01/04 03:59:58;;;;;;;1.67;0.68;;;26.30;49.20;;;;;;4956786;23;20141;-44
2022/01/04 05:02:36;;;;;;;1.30;0.65;;;27.10;51.60;;;;;;5023655;22;2531903;-45
2022/01/04 05:04:39;;;;;;;1.20;0.70;;;27.10;51.70;;;;;;5071299;23;20060;-49
2022/01/04 05:06:41;;;;;;;1.67;0.73;;;27.20;52.20;;;;;;5078660;23;20348;-45
2022/01/04 05:08:43;;;;;;;0.83;0.57;;;27.20;52.00;;;;;;5056119;23;20025;-46
2022/01/04 05:10:46;;;;;;;0.88;0.60;;;27.20;52.00;;;;;;5075679;23;20685;-50
2022/01/04 05:12:48;;;;;;;0.50;0.40;;;27.30;52.00;;;;;;5073028;23;20040;-49
2022/01/04 05:14:50;;;;;;;1.70;0.52;;;27.30;52.30;;;;;;5077451;23;20025;-46
2022/01/04 05:16:52;;;;;;;1.05;0.50;;;27.30;52.30;;;;;;5071377;23;21182;-48
2022/01/04 05:18:54;;;;;;;1.33;0.68;;;27.40;52.30;;;;;;5071465;23;20031;-49
2022/01/04 05:20:57;;;;;;;0.43;0.43;;;27.50;52.30;;;;;;5075803;23;20105;-49
2022/01/04 05:22:59;;;;;;;0.98;0.60;;;27.50;52.30;;;;;;5048181;23;20111;-45
2022/01/04 05:25:01;;;;;;;0.77;0.50;;;27.60;52.30;;;;;;5070298;23;20032;-50
2022/01/04 05:27:03;;;;;;;1.90;0.50;;;27.70;52.30;;;;;;5070308;23;20025;-46
2022/01/04 05:29:05;;;;;;;1.85;0.55;;;27.80;52.30;;;;;;5078921;23;20029;-48
2022/01/04 05:31:08;;;;;;;1.57;0.50;;;27.90;52.30;;;;;;5071487;23;20454;-48
2022/01/04 05:33:10;;;;;;;1.17;0.60;;;28.00;52.20;;;;;;5073121;23;20104;-48
2022/01/04 05:35:12;;;;;;;0.77;0.40;;;28.10;52.20;;;;;;5079974;23;20095;-51
2022/01/04 05:37:14;;;;;;;1.20;0.40;;;28.20;52.20;;;;;;5074738;23;20028;-48
2022/01/04 05:39:16;;;;;;;1.38;0.38;;;28.20;52.10;;;;;;5046337;23;20258;-46
2022/01/04 05:41:18;;;;;;;0.40;0.40;;;28.30;52.10;;;;;;5077470;23;20750;-49
2022/01/04 05:43:20;;;;;;;0.73;0.45;;;28.40;52.10;;;;;;5079053;23;20835;-49
2022/01/04 05:45:23;;;;;;;0.82;0.47;;;28.50;52.10;;;;;;5045168;23;20125;-46
2022/01/04 05:47:25;;;;;;;0.63;0.47;;;28.60;52.10;;;;;;5072835;23;20755;-49
2022/01/04 05:49:27;;;;;;;0.65;0.40;;;28.60;52.00;;;;;;5077902;23;20039;-47
2022/01/04 05:51:29;;;;;;;0.40;0.40;;;28.70;52.10;;;;;;5072433;23;20098;-48
2022/01/04 05:53:31;;;;;;;1.80;0.40;;;28.80;52.10;;;;;;5071166;23;20035;-47
2022/01/04 05:55:33;;;;;;;1.40;0.37;;;28.80;51.90;;;;;;5079565;23;20025;-47
2022/01/04 05:57:35;;;;;;;0.80;0.53;;;29.00;52.10;;;;;;5074446;23;20131;-49
2022/01/04 05:59:37;;;;;;;0.43;0.30;;;29.10;52.00;;;;;;5073505;23;20060;-48
2022/01/04 06:01:39;;;;;;;1.00;0.47;;;29.10;51.90;;;;;;5076193;23;20029;-48
2022/01/04 06:03:42;;;;;;;0.30;0.30;;;29.10;51.90;;;;;;5025196;23;20482;-49
2022/01/04 06:05:44;;;;;;;0.88;0.50;;;29.30;51.90;;;;;;5047303;23;20052;-50
2022/01/04 06:07:46;;;;;;;0.33;0.33;;;29.30;51.80;;;;;;5045998;23;20025;-50
2022/01/04 06:09:51;;;;;;;1.27;0.50;;;29.40;51.80;;;;;;5079400;23;20029;-46
2022/01/04 06:16:24;;;;;;;0.70;0.40;;;29.60;51.60;;;;;;5015079;23;20033;-49
2022/01/04 06:18:26;;;;;;;0.93;0.40;;;29.70;51.50;;;;;;5072864;23;20049;-48
2022/01/04 06:20:28;;;;;;;1.10;0.50;;;29.80;51.50;;;;;;5072628;23;20232;-47
2022/01/04 06:22:30;;;;;;;1.35;0.52;;;29.90;51.50;;;;;;5079406;23;20378;-50
2022/01/04 06:24:33;;;;;;;0.55;0.40;;;30.00;51.50;;;;;;5048066;23;21005;-46
2022/01/04 06:26:35;;;;;;;0.30;0.30;;;30.00;51.40;;;;;;5072451;23;20352;-50
2022/01/04 06:28:38;;;;;;;0.20;0.20;;;30.10;51.50;;;;;;5074825;23;20021;-50
2022/01/04 06:30:41;;;;;;;0.40;0.30;;;30.10;51.30;;;;;;5080609;23;20144;-51
2022/01/04 06:32:44;;;;;;;1.05;0.70;;;30.10;51.30;;;;;;5044471;23;20037;-48
2022/01/04 06:34:46;;;;;;;0.77;0.40;;;30.20;51.30;;;;;;5073623;23;20036;-46
2022/01/04 06:36:48;;;;;;;2.20;0.60;;;30.20;51.30;;;;;;5081468;23;20064;-50
2022/01/04 06:38:50;;;;;;;0.47;0.38;;;30.20;51.20;;;;;;5075948;23;20028;-52
2022/01/04 06:40:52;;;;;;;1.80;0.60;;;30.30;51.30;;;;;;5045428;23;20122;-48
2022/01/04 06:42:55;;;;;;;1.00;0.40;;;30.30;51.30;;;;;;5078457;23;20050;-49
2022/01/04 06:44:57;;;;;;;1.38;0.43;;;30.40;51.30;;;;;;5077488;23;20025;-49
2022/01/04 06:46:59;;;;;;;1.40;0.50;;;30.40;51.30;;;;;;5073738;23;20060;-48
2022/01/04 06:49:02;;;;;;;2.22;0.77;;;30.40;51.30;;;;;;5073855;23;20463;-49
2022/01/04 06:51:04;;;;;;;;;;;30.40;51.40;;;;;;5080031;23;20029;-46
2022/01/04 06:53:06;;;;;;;1.23;0.60;;;30.40;51.30;;;;;;5073962;23;19924;-52
2022/01/04 06:55:09;;;;;;;1.48;0.70;;;30.50;51.30;;;;;;5048578;23;20025;-51
2022/01/04 06:57:11;;;;;;;1.73;0.68;;;30.50;51.20;;;;;;5081761;23;20050;-49
2022/01/04 06:59:13;;;;;;;1.05;0.43;;;30.50;51.20;;;;;;5053302;23;20029;-48
2022/01/04 07:51:45;;;;;;;0.43;0.38;;;30.70;51.50;;;;;;5017435;22;2536709;-47
2022/01/04 07:53:47;;;;;;;3.42;0.73;;;30.70;51.50;;;;;;5133643;23;20028;-46
2022/01/04 07:55:49;;;;;;;1.50;0.68;;;30.60;51.00;;;;;;5127025;23;20881;-45
2022/01/04 07:57:52;;;;;;;1.23;0.70;;;30.40;50.00;;;;;;5126772;23;20031;-47
2022/01/04 07:59:54;;;;;;;1.95;1.02;;;30.20;49.70;;;;;;5106893;23;20494;-49
2022/01/04 08:01:57;;;;;;;1.50;0.80;;;30.00;49.10;;;;;;5130315;23;20132;-47
2022/01/04 08:04:04;;;;;;;1.00;0.60;;;29.80;49.30;;;;;;5126364;23;20482;-51
2022/01/04 08:06:06;;;;;;;1.45;0.90;;;29.70;48.50;;;;;;5120994;23;20028;-49
2022/01/04 08:08:09;;;;;;;1.75;0.77;;;29.50;48.20;;;;;;5126274;23;20058;-47
2022/01/04 08:10:11;;;;;;;1.23;0.93;;;29.40;48.00;;;;;;5124723;23;21179;-48
2022/01/04 08:12:14;;;;;;;0.93;0.73;;;29.30;48.10;;;;;;5089597;23;20047;-49
2022/01/04 08:14:16;;;;;;;;;;;29.20;47.70;;;;;;5116651;23;20440;-48
2022/01/04 08:16:18;;;;;;;1.83;0.70;;;29.10;47.70;;;;;;5121975;23;19984;-52
2022/01/04 08:18:20;;;;;;;1.48;0.90;;;29.00;47.50;;;;;;5113476;23;20472;-54
2022/01/04 08:20:22;;;;;;;2.00;0.82;;;28.90;47.40;;;;;;5112891;23;20771;-52
2022/01/04 08:22:25;;;;;;;1.48;0.70;;;28.70;47.00;;;;;;5097075;23;20062;-54
2022/01/04 08:24:27;;;;;;;1.55;0.68;;;28.60;47.00;;;;;;5090472;23;20365;-50
2022/01/04 08:26:29;;;;;;;1.20;0.70;;;28.60;47.40;;;;;;5119984;23;20110;-47
2022/01/04 08:28:32;;;;;;;0.60;0.33;;;28.40;46.20;;;;;;5098276;23;20032;-45
2022/01/04 08:30:34;;;;;;;1.00;0.50;;;28.30;45.80;;;;;;5117526;23;20046;-44
2022/01/04 08:32:37;;;;;;;1.88;0.68;;;28.10;45.90;;;;;;5080058;23;20744;-46
2022/01/04 08:34:39;;;;;;;1.67;0.60;;;28.00;45.90;;;;;;5114859;23;20028;-44
2022/01/04 08:36:42;;;;;;;0.73;0.60;;;27.80;45.70;;;;;;5121216;23;20122;-47
2022/01/04 08:38:44;;;;;;;1.90;0.90;;;27.70;45.70;;;;;;5088001;23;20749;-58
2022/01/04 08:40:46;;;;;;;1.20;0.75;;;27.50;45.60;;;;;;5114537;23;20154;-48
2022/01/04 08:42:48;;;;;;;0.47;0.47;;;27.40;46.00;;;;;;5123624;23;20028;-54
2022/01/04 08:44:51;;;;;;;1.23;0.85;;;27.30;46.10;;;;;;5094149;23;20098;-52
2022/01/04 08:46:53;;;;;;;1.15;0.70;;;27.20;46.20;;;;;;5121762;23;20054;-53
2022/01/04 08:48:56;;;;;;;2.17;0.70;;;27.10;46.40;;;;;;5121306;23;20039;-50
2022/01/04 08:50:58;;;;;;;1.20;0.70;;;27.00;46.40;;;;;;5127030;23;20113;-52
2022/01/04 08:53:00;;;;;;;1.50;0.80;;;26.80;46.50;;;;;;5117174;23;20663;-56
2022/01/04 08:55:04;;;;;;;1.00;0.77;;;26.70;46.70;;;;;;5120221;23;20738;-48
2022/01/04 08:57:07;;;;;;;1.83;1.02;;;26.60;46.80;;;;;;5127520;23;20063;-53
2022/01/04 08:59:10;;;;;;;1.08;0.65;;;26.50;46.80;;;;;;5123468;23;20333;-51
2022/01/04 09:01:11;;;;;;;;;;;26.40;47.00;;;;;;5113778;23;20028;-50
2022/01/04 09:03:14;;;;;;;1.42;0.80;;;26.30;47.10;;;;;;5112308;23;19923;-53
2022/01/04 09:05:16;;;;;;;1.58;0.90;;;26.20;47.10;;;;;;5127245;23;20694;-54
2022/01/04 09:07:19;;;;;;;3.08;0.90;;;26.10;47.10;;;;;;5119775;23;20024;-51
2022/01/04 09:09:21;;;;;;;1.05;0.60;;;26.00;47.20;;;;;;5118671;23;20028;-55
2022/01/04 09:11:24;;;;;;;2.13;1.08;;;25.90;47.50;;;;;;5098878;23;20035;-50
2022/01/04 09:13:33;;;;;;;1.17;0.65;;;25.80;47.50;;;;;;5122552;23;20907;-50
2022/01/04 09:20:19;;;;;;;0.85;0.60;;;25.50;47.70;;;;;;5093314;23;20360;-54
2022/01/04 09:22:21;;;;;;;1.33;0.70;;;25.40;47.80;;;;;;5126084;23;20032;-52
2022/01/04 09:24:24;;;;;;;1.15;0.80;;;25.30;47.90;;;;;;5119395;23;20033;-53
2022/01/04 09:26:27;;;;;;;0.93;0.60;;;25.30;48.10;;;;;;5091883;23;20036;-53
2022/01/04 09:28:30;;;;;;;1.13;0.55;;;25.30;48.80;;;;;;5097896;23;20069;-54
2022/01/04 09:30:32;;;;;;;1.50;1.02;;;25.30;49.10;;;;;;5122500;23;20920;-48
2022/01/04 09:32:35;;;;;;;0.77;0.63;;;25.30;49.40;;;;;;5091060;23;20111;-52
2022/01/04 09:34:37;;;;;;;;;;;25.40;49.60;;;;;;5118736;23;20432;-52
2022/01/04 09:36:40;;;;;;;1.23;0.50;;;25.50;49.70;;;;;;5126740;23;19923;-52
2022/01/04 09:38:42;;;;;;;0.50;0.47;;;25.60;50.00;;;;;;5090907;23;20117;-50
2022/01/04 09:40:45;;;;;;;0.53;0.50;;;25.60;50.10;;;;;;5119088;23;20810;-54
2022/01/04 09:42:50;;;;;;;0.50;0.38;;;25.60;50.30;;;;;;5098199;23;20040;-53
2022/01/04 09:44:52;;;;;;;0.50;0.50;;;25.70;50.50;;;;;;5125744;23;20288;-51
2022/01/04 09:46:55;;;;;;;0.88;0.43;;;25.70;50.60;;;;;;5118437;23;20576;-52
2022/01/04 09:48:57;;;;;;;0.60;0.50;;;25.70;50.80;;;;;;5119493;23;20043;-53
2022/01/04 09:51:00;;;;;;;2.83;0.70;;;25.80;51.10;;;;;;5125643;23;20028;-54
2022/01/04 09:53:02;;;;;;;;;;;25.90;51.30;;;;;;5120431;23;20265;-50
2022/01/04 09:55:04;;;;;;;0.47;0.35;;;25.90;51.40;;;;;;5119009;23;19943;-51
2022/01/04 09:57:07;;;;;;;0.30;0.30;;;25.90;51.60;;;;;;5126800;23;20028;-52
2022/01/04 09:59:09;;;;;;;0.23;0.23;;;25.90;51.60;;;;;;5121843;23;20331;-52
2022/01/04 10:34:22;;;;;;;1.60;0.63;;;26.50;56.70;;;;;;5021607;22;3425943;-52
2022/01/04 10:36:25;;;;;;;1.33;0.50;;;26.60;56.80;;;;;;5131183;23;20751;-49
2022/01/04 10:38:30;;;;;;;1.10;0.47;;;26.60;56.80;;;;;;5131377;23;20047;-53
2022/01/04 10:40:33;;;;;;;0.95;0.50;;;26.60;56.80;;;;;;5112050;23;20512;-54
2022/01/04 10:42:35;;;;;;;1.25;0.65;;;26.60;56.90;;;;;;5105320;23;21121;-52
2022/01/04 10:44:37;;;;;;;0.67;0.40;;;26.70;57.10;;;;;;5104819;23;20035;-50
2022/01/04 10:46:41;;;;;;;2.05;0.60;;;26.70;57.20;;;;;;5136770;23;20033;-53
2022/01/04 10:48:46;;;;;;;1.55;0.40;;;26.80;57.40;;;;;;5111832;23;20052;-53
2022/01/04 10:51:20;;;;;;;1.95;0.77;;;26.80;57.70;;;;;;5131712;23;20024;-53
2022/01/04 10:53:25;;;;;;;;;;;26.80;57.60;;;;;;5102361;23;20032;-54
2022/01/04 10:55:35;;;;;;;1.90;0.55;;;26.90;57.60;;;;;;5136579;23;19920;-58
2022/01/04 10:57:39;;;;;;;1.48;0.70;;;27.00;57.70;;;;;;5141467;23;20024;-49
2022/01/04 10:59:42;;;;;;;1.15;0.52;;;27.00;57.70;;;;;;5113075;23;20411;-51
2022/01/04 11:01:46;;;;;;;1.00;0.50;;;27.00;57.70;;;;;;5138882;23;20032;-55
2022/01/04 11:03:54;;;;;;;1.63;0.60;;;27.10;57.70;;;;;;5137874;23;20133;-58
2022/01/04 11:06:02;;;;;;;1.50;0.60;;;27.10;57.70;;;;;;5142354;23;20039;-56
2022/01/04 11:08:13;;;;;;;0.75;0.60;;;27.10;57.60;;;;;;5144968;23;20090;-50
2022/01/04 11:10:15;;;;;;;3.15;0.52;;;27.20;57.70;;;;;;5140954;23;20458;-51
2022/01/04 11:12:17;;;;;;;1.08;0.50;;;27.20;57.80;;;;;;5130428;23;20881;-49
2022/01/04 11:14:19;;;;;;;2.05;0.47;;;27.30;58.00;;;;;;5125769;23;20038;-49
2022/01/04 11:16:26;;;;;;;0.50;0.40;;;27.30;58.00;;;;;;5132632;23;20035;-55
2022/01/04 11:18:30;;;;;;;1.73;0.93;;;27.30;58.00;;;;;;5132854;23;20024;-54
2022/01/04 11:20:33;;;;;;;1.25;0.50;;;27.30;58.10;;;;;;5125445;23;20145;-53
2022/01/04 11:22:38;;;;;;;0.82;0.50;;;27.40;58.10;;;;;;5099259;23;20096;-57
2022/01/04 11:24:46;;;;;;;1.30;0.40;;;27.40;58.10;;;;;;5128149;23;20107;-57
2022/01/04 11:26:51;;;;;;;0.38;0.38;;;27.40;58.00;;;;;;5133782;23;20051;-53
2022/01/04 11:28:54;;;;;;;0.93;0.60;;;27.50;58.10;;;;;;5100127;23;20071;-55
2022/01/04 11:31:23;;;;;;;0.70;0.40;;;27.50;58.20;;;;;;5124475;23;20089;-57
2022/01/04 11:34:11;;;;;;;1.30;0.60;;;27.50;58.20;;;;;;5130206;23;20055;-56
2022/01/04 11:36:18;;;;;;;0.65;0.40;;;27.50;58.20;;;;;;5063368;23;20033;-55
2022/01/04 11:38:35;;;;;;;0.73;0.45;;;27.60;58.40;;;;;;5104714;23;20429;-52
2022/01/04 11:40:41;;;;;;;0.98;0.65;;;27.60;58.40;;;;;;5125873;23;20034;-54
2022/01/04 11:42:43;;;;;;;0.52;0.43;;;27.60;58.30;;;;;;5130426;23;20059;-52
2022/01/04 11:44:49;;;;;;;0.75;0.40;;;27.60;58.30;;;;;;5124854;23;20027;-52
2022/01/04 11:47:15;;;;;;;0.85;0.68;;;27.70;58.50;;;;;;5124353;23;20051;-55
2022/01/04 11:49:17;;;;;;;0.80;0.40;;;27.70;58.50;;;;;;5131120;23;20028;-54
2022/01/04 11:51:31;;;;;;;1.90;0.50;;;27.70;58.30;;;;;;5095883;23;20518;-53
2022/01/04 11:53:35;;;;;;;1.35;0.57;;;27.70;58.40;;;;;;5095661;23;20023;-53
2022/01/04 11:55:38;;;;;;;0.63;0.60;;;27.70;58.40;;;;;;5123949;23;20355;-51
2022/01/04 11:57:40;;;;;;;1.90;0.52;;;27.70;58.40;;;;;;5127247;23;20059;-49
2022/01/04 11:59:47;;;;;;;0.93;0.60;;;27.70;58.50;;;;;;5131344;23;20750;-54
2022/01/04 12:01:50;;;;;;;1.90;0.77;;;27.80;58.60;;;;;;5123196;23;20036;-51
2022/01/04 12:03:52;;;;;;;1.45;0.50;;;27.80;58.70;;;;;;5098070;23;20852;-55
2022/01/04 12:06:00;;;;;;;1.90;0.52;;;27.80;58.80;;;;;;5100789;23;20036;-53
2022/01/04 12:08:15;;;;;;;0.93;0.47;;;27.80;58.80;;;;;;5130516;23;20039;-54
2022/01/04 12:10:20;;;;;;;1.10;0.60;;;27.80;58.40;;;;;;5104552;23;20121;-55
2022/01/04 12:13:00;;;;;;;1.42;0.57;;;27.80;58.80;;;;;;5103003;23;20596;-54
2022/01/04 12:15:36;;;;;;;1.15;0.60;;;27.90;58.80;;;;;;5096806;23;20550;-55
2022/01/04 12:17:42;;;;;;;0.95;0.50;;;27.90;58.90;;;;;;5098488;23;20118;-52
2022/01/04 12:19:47;;;;;;;1.10;0.40;;;27.90;59.00;;;;;;5096991;23;20069;-53
2022/01/04 12:22:01;;;;;;;1.38;0.50;;;27.90;59.00;;;;;;5132278;23;20032;-52
2022/01/04 12:24:05;;;;;;;1.73;0.40;;;27.90;59.10;;;;;;5125264;23;20162;-54
2022/01/04 12:26:16;;;;;;;1.17;0.50;;;28.00;59.20;;;;;;5130101;23;20795;-55
2022/01/04 12:28:18;;;;;;;0.65;0.50;;;28.00;59.10;;;;;;5100694;23;20024;-51
2022/01/04 12:30:28;;;;;;;3.50;0.70;;;28.00;59.20;;;;;;5095536;23;20029;-55
2022/01/04 12:32:30;;;;;;;1.77;0.52;;;28.00;59.20;;;;;;5124790;23;20138;-54
2022/01/04 12:34:35;;;;;;;0.80;0.35;;;28.00;59.30;;;;;;5126988;23;20032;-50
2022/01/04 12:36:48;;;;;;;0.63;0.50;;;28.00;59.30;;;;;;5132453;23;20034;-50
2022/01/04 12:38:52;;;;;;;1.33;0.70;;;28.10;59.30;;;;;;5128279;23;20050;-56
2022/01/04 12:40:55;;;;;;;1.33;0.70;;;28.10;59.30;;;;;;5097918;23;20071;-55
2022/01/04 12:42:57;;;;;;;1.05;0.68;;;28.10;59.30;;;;;;5123254;23;20143;-54
2022/01/04 12:44:59;;;;;;;2.33;0.60;;;28.10;59.30;;;;;;5128038;23;20047;-56
2022/01/04 12:47:02;;;;;;;1.67;0.60;;;28.10;59.30;;;;;;5130468;23;20129;-56
2022/01/04 12:49:10;;;;;;;1.00;0.50;;;28.20;59.30;;;;;;5123070;23;20048;-56
2022/01/04 12:51:33;;;;;;;2.75;0.77;;;28.20;59.40;;;;;;5097922;23;20032;-55
2022/01/04 12:53:38;;;;;;;1.13;0.60;;;28.20;59.50;;;;;;5124772;23;20024;-56
2022/01/04 12:55:40;;;;;;;1.85;0.60;;;28.30;59.60;;;;;;5124317;23;20067;-57
2022/01/04 12:57:43;;;;;;;0.93;0.60;;;28.30;59.60;;;;;;5098200;23;20074;-56
2022/01/04 12:59:55;;;;;;;;;;;28.30;59.60;;;;;;5131546;23;20114;-51
2022/01/04 13:25:58;;;;;;;0.95;0.50;;;28.50;60.30;;;;;;5066443;22;2571020;-56
2022/01/04 13:28:05;;;;;;;1.77;0.60;;;28.40;60.30;;;;;;5104009;23;20090;-54
2022/01/04 13:30:19;;;;;;;1.65;0.75;;;28.50;60.50;;;;;;5102231;23;20551;-56
2022/01/04 13:32:26;;;;;;;2.15;0.60;;;28.50;60.40;;;;;;5128691;23;20154;-52
2022/01/04 13:34:28;;;;;;;1.50;0.60;;;28.50;60.50;;;;;;5134526;23;20370;-57
2022/01/04 13:36:33;;;;;;;3.88;0.63;;;28.50;60.50;;;;;;5135529;23;20024;-56
2022/01/04 13:38:36;;;;;;;0.80;0.57;;;28.50;60.60;;;;;;5127231;23;20478;-54
2022/01/04 13:40:40;;;;;;;1.17;0.60;;;28.40;61.20;;;;;;5128050;23;20028;-52
2022/01/04 13:42:44;;;;;;;0.88;0.50;;;28.40;60.60;;;;;;5109149;23;20039;-55
2022/01/04 13:45:02;;;;;;;1.27;0.65;;;28.40;60.70;;;;;;5107827;23;20112;-53
2022/01/04 13:47:14;;;;;;;1.88;0.80;;;28.50;60.70;;;;;;5135452;23;20064;-57
2022/01/04 13:49:26;;;;;;;1.65;0.90;;;28.40;60.50;;;;;;5135778;23;20020;-56
2022/01/04 13:51:35;;;;;;;3.15;0.88;;;28.50;60.70;;;;;;5108173;23;20128;-54
2022/01/04 13:53:53;;;;;;;1.55;0.70;;;28.40;60.70;;;;;;5108463;23;20039;-51
2022/01/04 13:56:07;;;;;;;1.20;0.55;;;28.50;60.70;;;;;;5103829;23;20150;-55
2022/01/04 13:58:32;;;;;;;6.15;0.88;;;28.40;60.60;;;;;;5130922;23;20069;-56
2022/01/04 14:00:35;;;;;;;0.80;0.50;;;28.40;60.70;;;;;;5122497;23;20023;-54
2022/01/04 14:02:37;;;;;;;2.53;0.80;;;28.40;60.60;;;;;;5129751;23;20469;-49
2022/01/04 14:04:39;;;;;;;2.65;1.05;;;28.40;60.60;;;;;;5136213;23;20039;-53
2022/01/04 14:06:44;;;;;;;2.10;0.67;;;28.40;60.60;;;;;;5129613;23;20047;-52
2022/01/04 14:08:54;;;;;;;1.63;0.55;;;28.40;60.60;;;;;;5129092;23;20135;-50
2022/01/04 14:11:03;;;;;;;1.90;0.60;;;28.40;60.50;;;;;;5099627;23;20040;-54
2022/01/04 14:13:05;;;;;;;2.25;0.63;;;28.40;60.60;;;;;;5097551;23;20024;-51
2022/01/04 14:15:10;;;;;;;0.83;0.60;;;28.40;60.60;;;;;;5100861;23;20029;-55
2022/01/04 14:17:13;;;;;;;2.08;1.08;;;28.40;60.60;;;;;;5105403;23;20493;-52
2022/01/04 14:19:39;;;;;;;2.47;0.80;;;28.40;60.60;;;;;;5123081;23;20508;-51
2022/01/04 14:22:01;;;;;;;1.77;0.70;;;28.40;60.70;;;;;;5101175;23;20052;-51
2022/01/04 14:24:25;;;;;;;1.15;0.63;;;28.40;60.60;;;;;;5122926;23;20035;-54
2022/01/04 14:26:27;;;;;;;1.25;0.60;;;28.40;60.70;;;;;;5121223;23;20024;-53
2022/01/04 14:28:29;;;;;;;1.75;0.68;;;28.40;60.70;;;;;;5094407;23;20055;-52
2022/01/04 14:30:35;;;;;;;4.53;1.17;;;28.40;60.70;;;;;;5127670;23;20036;-55
2022/01/04 14:32:42;;;;;;;4.45;0.82;;;28.40;60.70;;;;;;5103244;23;20588;-54
2022/01/04 14:34:44;;;;;;;2.20;0.90;;;28.40;60.80;;;;;;5125682;23;20599;-54
2022/01/04 14:36:46;;;;;;;4.30;0.90;;;28.40;60.80;;;;;;5124673;23;20031;-50
2022/01/04 14:38:48;;;;;;;4.75;0.98;;;28.40;60.70;;;;;;5128776;23;20024;-51
2022/01/04 14:40:50;;;;;;;3.23;0.97;;;28.40;60.70;;;;;;5131077;23;20452;-51
2022/01/04 14:42:53;;;;;;;3.50;0.88;;;28.40;60.70;;;;;;5124283;23;20031;-54
2022/01/04 14:44:55;;;;;;;3.25;0.50;;;28.40;60.70;;;;;;5125944;23;20118;-51
2022/01/04 14:46:58;;;;;;;1.17;0.50;;;28.40;60.70;;;;;;5105399;23;20029;-51
2022/01/04 14:49:00;;;;;;;1.87;0.90;;;28.40;60.70;;;;;;5125765;23;21285;-53
2022/01/04 14:51:02;;;;;;;1.70;0.68;;;28.40;60.70;;;;;;5123819;23;20036;-55
2022/01/04 14:53:04;;;;;;;3.15;0.80;;;28.40;60.60;;;;;;5131868;23;20023;-54
2022/01/04 14:55:06;;;;;;;0.83;0.43;;;28.40;60.70;;;;;;5102618;23;20617;-50
2022/01/04 14:57:09;;;;;;;6.35;0.60;;;28.40;60.80;;;;;;5125250;23;20257;-53
2022/01/04 14:59:12;;;;;;;1.55;0.68;;;28.40;60.80;;;;;;5101384;23;20104;-56
2022/01/04 15:01:14;;;;;;;2.15;0.55;;;28.40;60.80;;;;;;5131780;23;20024;-49
2022/01/04 15:03:16;;;;;;;1.10;0.60;;;28.40;60.80;;;;;;5126662;23;20039;-50
2022/01/04 15:05:19;;;;;;;2.95;0.65;;;28.40;60.80;;;;;;5124005;23;20078;-56